Time;durP1;ratioP1;P1;durP2;ratioP2;P2;SDS_P1;SDS_P2;PMS_P1;PMS_P2;Temp;Humidity;BMP_temperature;BMP_pressure;BME280_temperature;BME280_humidity;BME280_pressure;Samples;Min_cycle;Max_cycle;Signal;HPM_P1;HPM_P2
2021/12/20 00:02:22;;;;;;;0.70;0.50;;;;;;;;;;5084997;28;20851;-73
2021/12/20 00:04:52;;;;;;;0.70;0.60;;;;;;;;;;5055436;28;20462;-74
2021/12/20 00:07:19;;;;;;;0.90;0.80;;;;;;;;;;5071989;28;20404;-72
2021/12/20 00:09:46;;;;;;;0.80;0.60;;;;;;;;;;5072834;28;20450;-72
2021/12/20 00:12:14;;;;;;;0.70;0.60;;;;;;;;;;5073348;28;20473;-73
2021/12/20 00:14:40;;;;;;;0.70;0.52;;;;;;;;;;5075592;28;20415;-73
2021/12/20 00:17:07;;;;;;;0.90;0.90;;;;;;;;;;5071320;28;20749;-73
2021/12/20 00:19:34;;;;;;;0.90;0.70;;;;;;;;;;5077463;28;20493;-72
2021/12/20 00:22:03;;;;;;;0.70;0.50;;;;;;;;;;5075782;28;20496;-73
2021/12/20 00:24:30;;;;;;;0.70;0.60;;;;;;;;;;5093710;28;20430;-72
2021/12/20 00:26:57;;;;;;;0.80;0.60;;;;;;;;;;5090020;28;20918;-72
2021/12/20 00:29:24;;;;;;;1.60;1.10;;;;;;;;;;5091701;28;20414;-73
2021/12/20 00:31:52;;;;;;;0.70;0.50;;;;;;;;;;5088281;28;20421;-74
2021/12/20 00:34:18;;;;;;;1.20;0.65;;;;;;;;;;5090852;28;20839;-74
2021/12/20 00:36:56;;;;;;;0.70;0.50;;;;;;;;;;5074891;28;20406;-74
2021/12/20 00:42:10;;;;;;;0.70;0.60;;;;;;;;;;5091083;28;20881;-73
2021/12/20 00:44:38;;;;;;;0.70;0.50;;;;;;;;;;5090966;28;20410;-74
2021/12/20 00:47:05;;;;;;;0.70;0.50;;;;;;;;;;5069970;28;20820;-74
2021/12/20 00:49:33;;;;;;;0.70;0.60;;;;;;;;;;5072025;28;20412;-74
2021/12/20 00:52:00;;;;;;;0.70;0.60;;;;;;;;;;5084240;28;20460;-74
2021/12/20 00:54:29;;;;;;;0.70;0.60;;;;;;;;;;5093107;28;20426;-73
2021/12/20 00:56:56;;;;;;;0.90;0.80;;;;;;;;;;5090708;28;20461;-73
2021/12/20 00:59:23;;;;;;;0.70;0.50;;;;;;;;;;5073083;28;20442;-75
2021/12/20 01:01:51;;;;;;;1.50;0.60;;;;;;;;;;5086505;28;20439;-73
2021/12/20 01:04:19;;;;;;;0.70;0.52;;;;;;;;;;5093086;28;20433;-74
2021/12/20 01:06:46;;;;;;;0.70;0.60;;;;;;;;;;5091106;28;20778;-74
2021/12/20 01:09:12;;;;;;;0.70;0.50;;;;;;;;;;5088677;28;20449;-74
2021/12/20 01:11:42;;;;;;;0.70;0.50;;;;;;;;;;5072634;28;20410;-74
2021/12/20 01:14:11;;;;;;;0.90;0.60;;;;;;;;;;5065433;28;20416;-74
2021/12/20 01:16:38;;;;;;;0.75;0.50;;;;;;;;;;5066261;28;20407;-74
2021/12/20 01:19:05;;;;;;;0.80;0.60;;;;;;;;;;5076902;28;20426;-73
2021/12/20 01:21:32;;;;;;;0.70;0.50;;;;;;;;;;5071657;28;20420;-74
2021/12/20 01:23:58;;;;;;;0.70;0.70;;;;;;;;;;5083563;28;20418;-73
2021/12/20 01:26:25;;;;;;;0.80;0.50;;;;;;;;;;5091429;28;20400;-73
2021/12/20 01:28:54;;;;;;;0.70;0.50;;;;;;;;;;5081856;28;20774;-74
2021/12/20 01:31:22;;;;;;;0.80;0.60;;;;;;;;;;5095903;28;20480;-74
2021/12/20 01:33:48;;;;;;;0.80;0.60;;;;;;;;;;5096258;28;20834;-73
2021/12/20 01:36:16;;;;;;;0.70;0.50;;;;;;;;;;5095111;28;20414;-73
2021/12/20 01:38:43;;;;;;;0.90;0.60;;;;;;;;;;5073546;28;20414;-74
2021/12/20 01:41:10;;;;;;;0.70;0.50;;;;;;;;;;5077685;28;20480;-74
2021/12/20 01:43:38;;;;;;;0.70;0.60;;;;;;;;;;5074426;28;20407;-73
2021/12/20 01:46:06;;;;;;;0.80;0.70;;;;;;;;;;5073863;28;20765;-73
2021/12/20 01:48:33;;;;;;;0.80;0.60;;;;;;;;;;5074759;28;20422;-74
2021/12/20 01:53:27;;;;;;;1.40;1.30;;;;;;;;;;5076191;28;20469;-73
2021/12/20 01:55:55;;;;;;;1.42;1.33;;;;;;;;;;5090665;28;20938;-73
2021/12/20 01:58:22;;;;;;;0.70;0.50;;;;;;;;;;5077824;28;20406;-73
2021/12/20 02:03:40;;;;;;;0.70;0.60;;;;;;;;;;5091439;28;20506;-73
2021/12/20 02:06:16;;;;;;;1.20;0.70;;;;;;;;;;5084070;28;20410;-73
2021/12/20 02:08:43;;;;;;;0.70;0.50;;;;;;;;;;5095961;28;20410;-74
2021/12/20 02:11:10;;;;;;;0.80;0.70;;;;;;;;;;5077520;28;20408;-72
2021/12/20 02:13:38;;;;;;;0.70;0.60;;;;;;;;;;5093826;28;20410;-73
2021/12/20 02:16:06;;;;;;;0.70;0.50;;;;;;;;;;5058583;28;20536;-72
2021/12/20 02:18:33;;;;;;;0.70;0.50;;;;;;;;;;5088680;28;20425;-73
2021/12/20 02:21:01;;;;;;;0.70;0.50;;;;;;;;;;5074933;28;20907;-73
2021/12/20 02:23:29;;;;;;;1.00;0.60;;;;;;;;;;5075392;28;20420;-73
2021/12/20 02:25:55;;;;;;;0.70;0.50;;;;;;;;;;5092069;28;20443;-74
2021/12/20 02:28:23;;;;;;;0.70;0.50;;;;;;;;;;5094724;28;20410;-73
2021/12/20 02:39:00;;;;;;;0.70;0.50;;;;;;;;;;5094717;28;20398;-72
2021/12/20 02:41:35;;;;;;;0.70;0.50;;;;;;;;;;5084597;28;20503;-72
2021/12/20 02:44:16;;;;;;;0.70;0.60;;;;;;;;;;5093976;28;20395;-73
2021/12/20 02:46:51;;;;;;;0.80;0.80;;;;;;;;;;5094258;28;20430;-74
2021/12/20 02:49:24;;;;;;;0.70;0.50;;;;;;;;;;5085244;28;20417;-73
2021/12/20 02:52:00;;;;;;;0.70;0.50;;;;;;;;;;5073643;28;20968;-73
2021/12/20 02:54:36;;;;;;;0.88;0.65;;;;;;;;;;5073731;28;20434;-74
2021/12/20 02:57:07;;;;;;;1.10;1.00;;;;;;;;;;5082863;28;20503;-73
2021/12/20 02:59:41;;;;;;;3.90;1.50;;;;;;;;;;5093819;28;20961;-73
2021/12/20 03:02:11;;;;;;;0.70;0.50;;;;;;;;;;5093981;28;20924;-73
2021/12/20 03:04:41;;;;;;;0.70;0.50;;;;;;;;;;5088364;28;20406;-74
2021/12/20 03:07:16;;;;;;;0.70;0.50;;;;;;;;;;5076051;28;20427;-73
2021/12/20 03:09:59;;;;;;;1.20;1.10;;;;;;;;;;5085869;28;20770;-73
2021/12/20 03:12:32;;;;;;;0.80;0.70;;;;;;;;;;5073542;28;20427;-73
2021/12/20 03:15:11;;;;;;;1.40;0.80;;;;;;;;;;5089843;28;20426;-74
2021/12/20 03:17:43;;;;;;;0.70;0.70;;;;;;;;;;5077815;28;20402;-74
2021/12/20 03:20:18;;;;;;;0.70;0.50;;;;;;;;;;5092282;28;20410;-75
2021/12/20 03:22:52;;;;;;;1.20;1.00;;;;;;;;;;5078372;28;20438;-74
2021/12/20 03:25:32;;;;;;;0.70;0.55;;;;;;;;;;5058308;28;20854;-73
2021/12/20 03:28:02;;;;;;;0.70;0.55;;;;;;;;;;5073265;28;20422;-73
2021/12/20 03:30:33;;;;;;;0.80;0.77;;;;;;;;;;5076043;28;20475;-73
2021/12/20 03:33:07;;;;;;;0.70;0.60;;;;;;;;;;5072717;28;20426;-74
2021/12/20 03:35:37;;;;;;;0.90;0.80;;;;;;;;;;5060717;28;20811;-74
2021/12/20 03:38:13;;;;;;;1.00;0.90;;;;;;;;;;5074396;28;20518;-73
2021/12/20 03:40:45;;;;;;;0.70;0.60;;;;;;;;;;5072858;28;20487;-74
2021/12/20 03:43:30;;;;;;;0.85;0.82;;;;;;;;;;5072839;28;20810;-74
2021/12/20 03:46:06;;;;;;;0.80;0.70;;;;;;;;;;5072149;28;20411;-73
2021/12/20 03:48:35;;;;;;;0.80;0.70;;;;;;;;;;5074543;28;20522;-73
2021/12/20 03:51:02;;;;;;;0.70;0.50;;;;;;;;;;5072541;28;20407;-73
2021/12/20 03:53:33;;;;;;;0.70;0.52;;;;;;;;;;5056287;28;20410;-73
2021/12/20 03:56:01;;;;;;;1.00;0.90;;;;;;;;;;5073354;28;20408;-74
2021/12/20 03:58:28;;;;;;;0.70;0.50;;;;;;;;;;5071782;28;20907;-73
2021/12/20 04:00:57;;;;;;;1.40;0.90;;;;;;;;;;5073647;28;20505;-74
2021/12/20 04:03:25;;;;;;;0.80;0.77;;;;;;;;;;5092385;28;20937;-73
2021/12/20 04:05:52;;;;;;;1.50;1.40;;;;;;;;;;5075567;28;20977;-74
2021/12/20 04:08:19;;;;;;;1.30;1.20;;;;;;;;;;5091418;28;20464;-74
2021/12/20 04:10:48;;;;;;;0.70;0.50;;;;;;;;;;5089278;28;20509;-73
2021/12/20 04:13:15;;;;;;;1.20;0.60;;;;;;;;;;5092848;28;20821;-73
2021/12/20 04:15:42;;;;;;;1.10;0.80;;;;;;;;;;5087902;28;20443;-73
2021/12/20 04:18:08;;;;;;;0.90;0.60;;;;;;;;;;5071545;28;20415;-73
2021/12/20 04:20:35;;;;;;;0.70;0.50;;;;;;;;;;5074272;28;20468;-73
2021/12/20 04:23:03;;;;;;;0.70;0.50;;;;;;;;;;5072055;28;20478;-73
2021/12/20 04:25:29;;;;;;;0.70;0.50;;;;;;;;;;5071679;28;20509;-73
2021/12/20 04:27:57;;;;;;;0.70;0.50;;;;;;;;;;5076865;28;20422;-73
2021/12/20 04:30:28;;;;;;;1.10;0.95;;;;;;;;;;5087750;28;20506;-72
2021/12/20 04:32:57;;;;;;;1.10;1.00;;;;;;;;;;5071249;28;20426;-72
2021/12/20 04:35:24;;;;;;;0.70;0.50;;;;;;;;;;5072589;28;20494;-73
2021/12/20 04:37:53;;;;;;;1.20;0.60;;;;;;;;;;5083688;28;21001;-73
2021/12/20 04:40:22;;;;;;;0.80;0.70;;;;;;;;;;5091058;28;20414;-73
2021/12/20 04:42:49;;;;;;;0.70;0.70;;;;;;;;;;5092734;28;20451;-73
2021/12/20 04:45:19;;;;;;;0.70;0.50;;;;;;;;;;5082860;28;20454;-73
2021/12/20 04:47:45;;;;;;;0.75;0.65;;;;;;;;;;5088702;28;20934;-73
2021/12/20 04:50:13;;;;;;;0.70;0.50;;;;;;;;;;5084381;28;20447;-73
2021/12/20 04:52:42;;;;;;;1.30;0.88;;;;;;;;;;5082538;28;20410;-73
2021/12/20 04:55:09;;;;;;;1.90;0.60;;;;;;;;;;5074372;28;20498;-73
2021/12/20 04:57:37;;;;;;;0.70;0.50;;;;;;;;;;5090810;28;20416;-73
2021/12/20 05:00:05;;;;;;;0.95;0.95;;;;;;;;;;5078865;28;20460;-73
2021/12/20 05:02:33;;;;;;;1.10;0.90;;;;;;;;;;5074436;28;20421;-73
2021/12/20 05:05:00;;;;;;;0.80;0.80;;;;;;;;;;5091349;28;20452;-73
2021/12/20 05:07:28;;;;;;;0.70;0.60;;;;;;;;;;5093539;28;20450;-73
2021/12/20 05:10:01;;;;;;;0.70;0.60;;;;;;;;;;5095142;28;20774;-75
2021/12/20 05:12:28;;;;;;;0.70;0.57;;;;;;;;;;5086924;28;20417;-73
2021/12/20 05:14:55;;;;;;;0.80;0.55;;;;;;;;;;5079687;28;20417;-74
2021/12/20 05:17:23;;;;;;;0.70;0.50;;;;;;;;;;5083830;28;21025;-74
2021/12/20 05:19:51;;;;;;;0.70;0.50;;;;;;;;;;5067674;28;20419;-74
2021/12/20 05:22:19;;;;;;;0.90;0.90;;;;;;;;;;5092399;28;20902;-73
2021/12/20 05:24:45;;;;;;;4.80;0.70;;;;;;;;;;5076008;28;20460;-74
2021/12/20 05:27:13;;;;;;;1.40;0.60;;;;;;;;;;5093720;28;20408;-74
2021/12/20 05:29:40;;;;;;;0.70;0.50;;;;;;;;;;5076092;28;20543;-74
2021/12/20 05:32:07;;;;;;;1.50;0.60;;;;;;;;;;5092912;28;20408;-74
2021/12/20 05:34:34;;;;;;;0.80;0.70;;;;;;;;;;5094375;28;20466;-73
2021/12/20 05:37:03;;;;;;;0.90;0.57;;;;;;;;;;5076626;28;20978;-74
2021/12/20 05:39:30;;;;;;;0.70;0.50;;;;;;;;;;5095836;28;20895;-72
2021/12/20 05:41:57;;;;;;;0.70;0.50;;;;;;;;;;5095766;28;20402;-72
2021/12/20 05:44:23;;;;;;;1.50;1.05;;;;;;;;;;5094920;28;20913;-72
2021/12/20 05:46:52;;;;;;;0.73;0.55;;;;;;;;;;5080997;28;20477;-73
2021/12/20 05:49:19;;;;;;;0.70;0.50;;;;;;;;;;5074590;28;20449;-73
2021/12/20 05:51:47;;;;;;;0.70;0.60;;;;;;;;;;5057835;28;20983;-73
2021/12/20 05:54:15;;;;;;;0.70;0.60;;;;;;;;;;5075763;28;20434;-72
2021/12/20 05:56:42;;;;;;;1.40;1.30;;;;;;;;;;5057667;28;20420;-73
2021/12/20 05:59:09;;;;;;;0.90;0.90;;;;;;;;;;5074217;28;20462;-73
2021/12/20 06:01:36;;;;;;;0.70;0.70;;;;;;;;;;5073941;28;20845;-73
2021/12/20 06:04:03;;;;;;;0.70;0.50;;;;;;;;;;5075271;28;20441;-72
2021/12/20 06:06:31;;;;;;;0.70;0.50;;;;;;;;;;5074324;28;20447;-72
2021/12/20 06:08:58;;;;;;;0.70;0.50;;;;;;;;;;5057547;28;20494;-73
2021/12/20 06:11:27;;;;;;;0.70;0.60;;;;;;;;;;5073839;28;20431;-73
2021/12/20 06:13:54;;;;;;;0.70;0.50;;;;;;;;;;5073251;28;20416;-74
2021/12/20 06:16:21;;;;;;;0.73;0.63;;;;;;;;;;5073343;28;20438;-73
2021/12/20 06:18:51;;;;;;;0.70;0.50;;;;;;;;;;5057780;28;20418;-72
2021/12/20 06:21:19;;;;;;;0.70;0.50;;;;;;;;;;5075594;28;20499;-72
2021/12/20 06:23:45;;;;;;;1.50;1.40;;;;;;;;;;5075716;28;20407;-71
2021/12/20 06:26:13;;;;;;;0.70;0.70;;;;;;;;;;5075438;28;20408;-71
2021/12/20 06:28:42;;;;;;;0.70;0.50;;;;;;;;;;5074031;28;20443;-72
2021/12/20 06:31:10;;;;;;;0.70;0.50;;;;;;;;;;5079491;28;20422;-73
2021/12/20 06:33:36;;;;;;;0.70;0.52;;;;;;;;;;5087594;28;20902;-73
2021/12/20 06:36:03;;;;;;;0.80;0.80;;;;;;;;;;5093782;28;20432;-73
2021/12/20 06:38:32;;;;;;;0.70;0.70;;;;;;;;;;5093534;28;20457;-72
2021/12/20 06:40:59;;;;;;;2.10;0.90;;;;;;;;;;5094646;28;20402;-72
2021/12/20 06:43:27;;;;;;;0.70;0.50;;;;;;;;;;5094786;28;20398;-73
2021/12/20 06:45:55;;;;;;;0.80;0.60;;;;;;;;;;5088875;28;20406;-73
2021/12/20 06:48:25;;;;;;;0.70;0.50;;;;;;;;;;5085951;28;20805;-73
2021/12/20 06:50:53;;;;;;;0.70;0.50;;;;;;;;;;5093700;28;20914;-73
2021/12/20 06:53:22;;;;;;;0.70;0.50;;;;;;;;;;5093165;28;20882;-73
2021/12/20 06:55:49;;;;;;;1.00;0.90;;;;;;;;;;5076451;28;20402;-72
2021/12/20 06:58:16;;;;;;;0.90;0.70;;;;;;;;;;5091793;28;20412;-72
2021/12/20 07:00:42;;;;;;;0.70;0.50;;;;;;;;;;5092388;28;20394;-72
2021/12/20 07:03:10;;;;;;;0.70;0.50;;;;;;;;;;5093173;28;20417;-72
2021/12/20 07:05:37;;;;;;;0.70;0.50;;;;;;;;;;5093109;28;20457;-72
2021/12/20 07:08:05;;;;;;;0.70;0.50;;;;;;;;;;5094362;28;20402;-73
2021/12/20 07:10:32;;;;;;;0.70;0.50;;;;;;;;;;5093941;28;20449;-72
2021/12/20 07:13:03;;;;;;;0.70;0.50;;;;;;;;;;5093729;28;20413;-72
2021/12/20 07:15:32;;;;;;;0.70;0.50;;;;;;;;;;5082566;28;20518;-73
2021/12/20 07:17:58;;;;;;;0.70;0.50;;;;;;;;;;5070906;28;20410;-73
2021/12/20 07:20:27;;;;;;;1.20;0.80;;;;;;;;;;5080520;28;20423;-72
2021/12/20 07:22:53;;;;;;;0.70;0.50;;;;;;;;;;5073226;28;20404;-73
2021/12/20 07:25:21;;;;;;;0.70;0.50;;;;;;;;;;5072277;28;20399;-73
2021/12/20 07:27:49;;;;;;;0.75;0.50;;;;;;;;;;5072790;28;20403;-71
2021/12/20 07:30:16;;;;;;;1.10;0.80;;;;;;;;;;5073384;28;20416;-72
2021/12/20 07:32:44;;;;;;;0.70;0.50;;;;;;;;;;5072779;28;20500;-72
2021/12/20 07:35:11;;;;;;;0.80;0.80;;;;;;;;;;5072147;28;20970;-72
2021/12/20 07:37:39;;;;;;;1.10;1.00;;;;;;;;;;5073569;28;20987;-72
2021/12/20 07:40:10;;;;;;;0.70;0.50;;;;;;;;;;5055766;28;20435;-72
2021/12/20 07:42:37;;;;;;;0.70;0.50;;;;;;;;;;5072471;28;20499;-72
2021/12/20 07:45:04;;;;;;;0.70;0.50;;;;;;;;;;5073974;28;20953;-72
2021/12/20 07:47:45;;;;;;;2.90;0.90;;;;;;;;;;5072203;28;20418;-72
2021/12/20 07:50:12;;;;;;;0.70;0.50;;;;;;;;;;5072189;28;20511;-72
2021/12/20 07:52:40;;;;;;;0.70;0.50;;;;;;;;;;5073321;28;20812;-73
2021/12/20 07:55:08;;;;;;;0.70;0.50;;;;;;;;;;5071913;28;20472;-71
2021/12/20 07:57:37;;;;;;;0.70;0.50;;;;;;;;;;5072922;28;20929;-71
2021/12/20 08:00:07;;;;;;;0.70;0.50;;;;;;;;;;5055444;28;20411;-73
2021/12/20 08:02:38;;;;;;;0.70;0.50;;;;;;;;;;5073224;28;20479;-72
2021/12/20 08:05:06;;;;;;;0.70;0.50;;;;;;;;;;5073330;28;20395;-73
2021/12/20 08:07:34;;;;;;;0.70;0.60;;;;;;;;;;5072053;28;20468;-73
2021/12/20 08:10:03;;;;;;;0.70;0.50;;;;;;;;;;5071600;28;20419;-73
2021/12/20 08:12:30;;;;;;;0.80;0.80;;;;;;;;;;5070379;28;20418;-74
2021/12/20 08:14:57;;;;;;;0.70;0.50;;;;;;;;;;5054962;28;20762;-71
2021/12/20 08:17:25;;;;;;;0.70;0.50;;;;;;;;;;5071956;28;20407;-72
2021/12/20 08:19:52;;;;;;;0.70;0.50;;;;;;;;;;5073058;28;20732;-73
2021/12/20 08:22:24;;;;;;;0.70;0.50;;;;;;;;;;5073113;28;20407;-73
2021/12/20 08:24:51;;;;;;;0.70;0.50;;;;;;;;;;5072823;28;20887;-73
2021/12/20 08:27:19;;;;;;;0.70;0.60;;;;;;;;;;5077810;28;20473;-74
2021/12/20 08:29:47;;;;;;;0.70;0.60;;;;;;;;;;5059281;28;20477;-73
2021/12/20 08:32:14;;;;;;;0.73;0.60;;;;;;;;;;5071318;28;20419;-72
2021/12/20 08:34:41;;;;;;;0.70;0.50;;;;;;;;;;5072836;28;20403;-72
2021/12/20 08:37:08;;;;;;;0.70;0.50;;;;;;;;;;5072261;28;20410;-72
2021/12/20 08:39:34;;;;;;;0.70;0.50;;;;;;;;;;5076847;28;20398;-72
2021/12/20 08:42:03;;;;;;;0.70;0.60;;;;;;;;;;5077111;28;20465;-72
2021/12/20 08:44:33;;;;;;;0.70;0.50;;;;;;;;;;5092646;28;20504;-72
2021/12/20 08:47:00;;;;;;;0.70;0.50;;;;;;;;;;5071414;28;20510;-73
2021/12/20 08:49:27;;;;;;;0.80;0.70;;;;;;;;;;5071077;28;20438;-72
2021/12/20 08:51:54;;;;;;;0.70;0.60;;;;;;;;;;5072157;28;20423;-72
2021/12/20 08:54:24;;;;;;;0.70;0.50;;;;;;;;;;5078273;28;20493;-72
2021/12/20 08:56:51;;;;;;;0.70;0.50;;;;;;;;;;5091021;28;20433;-72
2021/12/20 08:59:18;;;;;;;0.70;0.50;;;;;;;;;;5074485;28;20486;-73
2021/12/20 09:01:50;;;;;;;1.10;0.80;;;;;;;;;;5074874;28;20921;-72
2021/12/20 09:04:17;;;;;;;0.80;0.70;;;;;;;;;;5091273;28;20905;-73
2021/12/20 09:06:50;;;;;;;0.90;0.80;;;;;;;;;;5091198;28;20884;-73
2021/12/20 09:09:17;;;;;;;0.80;0.50;;;;;;;;;;5092281;28;20398;-72
2021/12/20 09:11:44;;;;;;;1.47;1.17;;;;;;;;;;5071019;28;20420;-73
2021/12/20 09:14:11;;;;;;;0.80;0.70;;;;;;;;;;5092259;28;20413;-72
2021/12/20 09:16:38;;;;;;;0.80;0.80;;;;;;;;;;5092502;28;20476;-72
2021/12/20 09:19:06;;;;;;;0.80;0.55;;;;;;;;;;5080399;28;20445;-72
2021/12/20 09:21:34;;;;;;;1.90;0.90;;;;;;;;;;5073908;28;20414;-72
2021/12/20 09:24:02;;;;;;;1.70;0.90;;;;;;;;;;5072198;28;20414;-73
2021/12/20 09:26:30;;;;;;;0.80;0.60;;;;;;;;;;5054304;28;20447;-72
2021/12/20 09:28:57;;;;;;;0.70;0.60;;;;;;;;;;5072151;28;20435;-73
2021/12/20 09:31:24;;;;;;;0.70;0.50;;;;;;;;;;5072174;28;20507;-72
2021/12/20 09:33:55;;;;;;;0.70;0.50;;;;;;;;;;5071120;28;20899;-73
2021/12/20 09:36:29;;;;;;;0.80;0.60;;;;;;;;;;5072124;28;20499;-73
2021/12/20 09:38:56;;;;;;;1.00;0.90;;;;;;;;;;5071983;28;20412;-72
2021/12/20 09:44:02;;;;;;;0.70;0.50;;;;;;;;;;5071961;28;20456;-71
2021/12/20 09:46:31;;;;;;;0.70;0.50;;;;;;;;;;5070878;28;20438;-72
2021/12/20 09:49:00;;;;;;;0.80;0.70;;;;;;;;;;5073275;28;20408;-72
2021/12/20 09:51:28;;;;;;;0.70;0.50;;;;;;;;;;5074498;28;20420;-71
2021/12/20 09:53:57;;;;;;;0.70;0.50;;;;;;;;;;5058059;28;20451;-71
2021/12/20 09:56:26;;;;;;;0.70;0.70;;;;;;;;;;5077333;28;20749;-71
2021/12/20 09:58:57;;;;;;;0.70;0.50;;;;;;;;;;5077999;28;20410;-72
2021/12/20 10:01:24;;;;;;;0.70;0.50;;;;;;;;;;5077241;28;20744;-73
2021/12/20 10:03:52;;;;;;;0.70;0.50;;;;;;;;;;5077679;28;20410;-72
2021/12/20 10:06:21;;;;;;;0.70;0.50;;;;;;;;;;5094563;28;20398;-73
2021/12/20 10:08:55;;;;;;;0.80;0.70;;;;;;;;;;5094273;28;20441;-73
2021/12/20 10:11:23;;;;;;;1.10;1.00;;;;;;;;;;5077509;28;20843;-73
2021/12/20 10:14:00;;;;;;;1.30;1.20;;;;;;;;;;5073662;28;20946;-73
2021/12/20 10:16:28;;;;;;;0.70;0.50;;;;;;;;;;5057215;28;20923;-73
2021/12/20 10:18:55;;;;;;;0.70;0.60;;;;;;;;;;5074989;28;20436;-73
2021/12/20 10:21:32;;;;;;;0.70;0.60;;;;;;;;;;5078642;28;20406;-73
2021/12/20 10:24:03;;;;;;;0.70;0.50;;;;;;;;;;5086629;28;20865;-72
2021/12/20 10:26:37;;;;;;;0.70;0.50;;;;;;;;;;5076558;28;20972;-72
2021/12/20 10:29:15;;;;;;;0.77;0.68;;;;;;;;;;5076494;28;20402;-73
2021/12/20 10:31:45;;;;;;;0.70;0.50;;;;;;;;;;5093647;28;20414;-73
2021/12/20 10:34:13;;;;;;;0.70;0.70;;;;;;;;;;5091710;28;20512;-71
2021/12/20 10:36:49;;;;;;;0.80;0.80;;;;;;;;;;5079932;28;20575;-72
2021/12/20 10:39:31;;;;;;;0.70;0.70;;;;;;;;;;5091227;28;20401;-72
2021/12/20 10:42:11;;;;;;;0.80;0.80;;;;;;;;;;5088493;28;20486;-72
2021/12/20 10:44:37;;;;;;;0.70;0.50;;;;;;;;;;5074253;28;20408;-73
2021/12/20 10:47:06;;;;;;;1.45;0.63;;;;;;;;;;5073811;28;20412;-73
2021/12/20 10:49:34;;;;;;;0.80;0.60;;;;;;;;;;5080795;28;20412;-73
2021/12/20 10:52:01;;;;;;;1.15;1.05;;;;;;;;;;5093154;28;20763;-75
2021/12/20 10:54:32;;;;;;;0.70;0.50;;;;;;;;;;5093434;28;20474;-72
2021/12/20 10:57:03;;;;;;;3.70;0.70;;;;;;;;;;5093285;28;20402;-74
2021/12/20 10:59:31;;;;;;;0.70;0.60;;;;;;;;;;5076524;28;20993;-72
2021/12/20 11:04:28;;;;;;;0.70;0.50;;;;;;;;;;5094522;28;20481;-71
2021/12/20 11:09:04;;;;;;;0.70;0.50;;;;;;;;;;5093186;28;20438;-72
2021/12/20 11:09:50;;;;;;;0.70;0.50;;;;;;;;;;5094355;28;20867;-73
2021/12/20 11:12:20;;;;;;;0.70;0.60;;;;;;;;;;5076023;28;20425;-76
2021/12/20 11:14:48;;;;;;;0.80;0.80;;;;;;;;;;5092930;28;20397;-75
2021/12/20 11:17:16;;;;;;;0.80;0.80;;;;;;;;;;5093273;28;20398;-74
2021/12/20 11:19:47;;;;;;;0.70;0.50;;;;;;;;;;5094682;28;20478;-74
2021/12/20 11:22:17;;;;;;;0.70;0.60;;;;;;;;;;5092299;28;20459;-74
2021/12/20 11:24:53;;;;;;;0.70;0.50;;;;;;;;;;5077627;28;20849;-75
2021/12/20 11:27:22;;;;;;;1.00;0.90;;;;;;;;;;5073801;28;20399;-76
2021/12/20 11:29:50;;;;;;;2.10;0.90;;;;;;;;;;5063731;28;20911;-76
2021/12/20 11:32:18;;;;;;;0.70;0.60;;;;;;;;;;5075111;28;20431;-75
2021/12/20 11:34:45;;;;;;;0.80;0.50;;;;;;;;;;5056047;28;20408;-75
2021/12/20 11:37:13;;;;;;;0.70;0.50;;;;;;;;;;5073840;28;20903;-74
2021/12/20 11:39:41;;;;;;;0.70;0.50;;;;;;;;;;5073669;28;20438;-72
2021/12/20 11:42:12;;;;;;;1.00;0.93;;;;;;;;;;5073094;28;20427;-73
2021/12/20 11:44:40;;;;;;;1.50;1.00;;;;;;;;;;5084960;28;20464;-73
2021/12/20 11:47:24;;;;;;;0.70;0.50;;;;;;;;;;5072933;28;20469;-72
2021/12/20 11:49:56;;;;;;;0.70;0.50;;;;;;;;;;5055603;28;20415;-73
2021/12/20 11:52:23;;;;;;;0.70;0.55;;;;;;;;;;5071759;28;20507;-73
2021/12/20 11:54:51;;;;;;;0.70;0.50;;;;;;;;;;5072105;28;20416;-72
2021/12/20 11:57:36;;;;;;;0.70;0.50;;;;;;;;;;5071651;28;20400;-74
2021/12/20 12:00:22;;;;;;;0.70;0.50;;;;;;;;;;5062433;28;20442;-73
2021/12/20 12:02:53;;;;;;;0.70;0.60;;;;;;;;;;5071758;28;20470;-72
2021/12/20 12:05:34;;;;;;;0.70;0.50;;;;;;;;;;5071670;28;20406;-72
2021/12/20 12:08:19;;;;;;;0.70;0.50;;;;;;;;;;5071537;28;20465;-73
2021/12/20 12:10:48;;;;;;;0.70;0.50;;;;;;;;;;5072927;28;20470;-74
2021/12/20 12:13:17;;;;;;;0.70;0.50;;;;;;;;;;5070043;28;20420;-72
2021/12/20 12:15:52;;;;;;;0.70;0.50;;;;;;;;;;5072035;28;20470;-73
2021/12/20 12:18:19;;;;;;;0.80;0.60;;;;;;;;;;5077715;28;20949;-72
2021/12/20 12:20:49;;;;;;;0.70;0.50;;;;;;;;;;5075663;28;20392;-73
2021/12/20 12:23:20;;;;;;;0.88;0.60;;;;;;;;;;5071559;28;20408;-73
2021/12/20 12:25:49;;;;;;;0.70;0.52;;;;;;;;;;5054932;28;20407;-72
2021/12/20 12:28:18;;;;;;;0.90;0.80;;;;;;;;;;5072324;28;20391;-73
2021/12/20 12:30:57;;;;;;;0.70;0.50;;;;;;;;;;5076761;28;20489;-73
2021/12/20 12:33:25;;;;;;;0.70;0.50;;;;;;;;;;5088609;28;20779;-74
2021/12/20 12:36:00;;;;;;;0.70;0.50;;;;;;;;;;5091716;28;20754;-75
2021/12/20 12:38:28;;;;;;;0.70;0.50;;;;;;;;;;5091459;28;20418;-76
2021/12/20 12:41:12;;;;;;;0.70;0.50;;;;;;;;;;5091731;28;20421;-75
2021/12/20 12:43:47;;;;;;;0.70;0.50;;;;;;;;;;5069651;28;20454;-76
2021/12/20 12:46:15;;;;;;;0.70;0.50;;;;;;;;;;5090504;28;20461;-78
2021/12/20 12:48:46;;;;;;;0.70;0.60;;;;;;;;;;5076925;28;20406;-79
2021/12/20 12:51:28;;;;;;;0.70;0.70;;;;;;;;;;5079928;28;20413;-77
2021/12/20 12:53:58;;;;;;;0.70;0.60;;;;;;;;;;5093110;28;20425;-79
2021/12/20 12:56:29;;;;;;;0.70;0.50;;;;;;;;;;5092649;28;20491;-76
2021/12/20 12:59:23;;;;;;;0.70;0.60;;;;;;;;;;5091501;28;20421;-76
2021/12/20 13:01:52;;;;;;;0.70;0.50;;;;;;;;;;5044644;28;20405;-77
2021/12/20 13:04:39;;;;;;;0.70;0.50;;;;;;;;;;5091433;28;20420;-77
2021/12/20 13:07:06;;;;;;;1.10;0.60;;;;;;;;;;5091256;28;20778;-76
2021/12/20 13:09:38;;;;;;;0.70;0.50;;;;;;;;;;5091105;28;20421;-76
2021/12/20 13:12:08;;;;;;;0.70;0.50;;;;;;;;;;5086814;28;20423;-76
2021/12/20 13:14:49;;;;;;;0.70;0.55;;;;;;;;;;5070902;28;20395;-73
2021/12/20 13:17:29;;;;;;;0.70;0.50;;;;;;;;;;5073513;28;20402;-74
2021/12/20 13:23:08;;;;;;;1.10;1.00;;;;;;;;;;5070996;28;20451;-71
2021/12/20 13:25:36;;;;;;;0.70;0.50;;;;;;;;;;5061807;28;20473;-72
2021/12/20 13:28:08;;;;;;;0.70;0.50;;;;;;;;;;5083563;28;20424;-72
2021/12/20 13:30:37;;;;;;;0.70;0.50;;;;;;;;;;5096557;28;20405;-72
2021/12/20 13:33:06;;;;;;;0.70;0.50;;;;;;;;;;5094619;28;20414;-74
2021/12/20 13:35:33;;;;;;;0.90;0.80;;;;;;;;;;5074850;28;20427;-72
2021/12/20 13:38:16;;;;;;;1.00;0.90;;;;;;;;;;5074557;28;20416;-73
2021/12/20 13:40:54;;;;;;;0.70;0.50;;;;;;;;;;5074273;28;20445;-72
2021/12/20 13:43:30;;;;;;;0.70;0.60;;;;;;;;;;5074217;28;20400;-72
2021/12/20 13:46:06;;;;;;;0.70;0.60;;;;;;;;;;5073899;28;20493;-73
2021/12/20 13:48:35;;;;;;;0.70;0.50;;;;;;;;;;5074416;28;20494;-72
2021/12/20 13:51:03;;;;;;;0.70;0.50;;;;;;;;;;5074577;28;20400;-71
2021/12/20 13:53:31;;;;;;;0.80;0.60;;;;;;;;;;5074329;28;20418;-73
2021/12/20 13:56:01;;;;;;;0.70;0.60;;;;;;;;;;5074233;28;20415;-73
2021/12/20 13:58:28;;;;;;;1.20;1.10;;;;;;;;;;5074117;28;20419;-71
2021/12/20 14:00:56;;;;;;;0.70;0.50;;;;;;;;;;5074076;28;20540;-73
2021/12/20 14:03:23;;;;;;;0.70;0.50;;;;;;;;;;5074847;28;20399;-72
2021/12/20 14:05:51;;;;;;;0.70;0.50;;;;;;;;;;5057405;28;20824;-72
2021/12/20 14:08:21;;;;;;;0.70;0.57;;;;;;;;;;5073635;28;20442;-72
2021/12/20 14:10:52;;;;;;;0.70;0.50;;;;;;;;;;5073930;28;20880;-72
2021/12/20 14:13:20;;;;;;;0.70;0.50;;;;;;;;;;5083889;28;20778;-72
2021/12/20 14:15:55;;;;;;;0.70;0.60;;;;;;;;;;5078662;28;20400;-72
2021/12/20 14:18:27;;;;;;;0.70;0.50;;;;;;;;;;5073935;28;20408;-72
2021/12/20 14:21:01;;;;;;;0.73;0.52;;;;;;;;;;5057381;28;20441;-71
2021/12/20 14:23:29;;;;;;;0.70;0.50;;;;;;;;;;5073348;28;20416;-72
2021/12/20 14:26:02;;;;;;;0.70;0.50;;;;;;;;;;5075768;28;20408;-71
2021/12/20 14:28:30;;;;;;;0.70;0.50;;;;;;;;;;5088951;28;20433;-71
2021/12/20 14:30:59;;;;;;;0.70;0.50;;;;;;;;;;5095011;28;20441;-71
2021/12/20 14:33:27;;;;;;;0.70;0.50;;;;;;;;;;5094906;28;20457;-72
2021/12/20 14:36:00;;;;;;;0.70;0.50;;;;;;;;;;5094198;28;20448;-72
2021/12/20 14:38:29;;;;;;;0.70;0.50;;;;;;;;;;5095059;28;20406;-72
2021/12/20 14:40:56;;;;;;;0.70;0.50;;;;;;;;;;5087367;28;20436;-73
2021/12/20 14:43:27;;;;;;;0.70;0.50;;;;;;;;;;5074610;28;20516;-72
2021/12/20 14:46:08;;;;;;;0.70;0.50;;;;;;;;;;5075261;28;20471;-71
2021/12/20 14:48:40;;;;;;;0.70;0.50;;;;;;;;;;5076621;28;20744;-72
2021/12/20 14:51:14;;;;;;;0.80;0.60;;;;;;;;;;5093400;28;20462;-73
2021/12/20 14:53:41;;;;;;;0.80;0.80;;;;;;;;;;5094679;28;20410;-72
2021/12/20 14:56:10;;;;;;;0.70;0.50;;;;;;;;;;5094677;28;20398;-72
2021/12/20 14:58:37;;;;;;;0.70;0.50;;;;;;;;;;5093397;28;20727;-72
2021/12/20 15:01:04;;;;;;;0.70;0.50;;;;;;;;;;5094161;28;20410;-72
2021/12/20 15:03:31;;;;;;;0.80;0.70;;;;;;;;;;5093140;28;20986;-72
2021/12/20 15:05:59;;;;;;;0.70;0.50;;;;;;;;;;5093464;28;20445;-74
2021/12/20 15:08:27;;;;;;;0.70;0.50;;;;;;;;;;5092607;28;20406;-72
2021/12/20 15:10:56;;;;;;;0.77;0.73;;;;;;;;;;5068723;28;20414;-73
2021/12/20 15:13:23;;;;;;;0.80;0.60;;;;;;;;;;5065859;28;20890;-72
2021/12/20 15:15:53;;;;;;;0.70;0.50;;;;;;;;;;5083818;28;20414;-72
2021/12/20 15:18:20;;;;;;;0.70;0.60;;;;;;;;;;5075961;28;20419;-72
2021/12/20 15:20:47;;;;;;;0.70;0.50;;;;;;;;;;5090624;28;20428;-72
2021/12/20 15:23:14;;;;;;;1.10;0.90;;;;;;;;;;5083630;28;20466;-72